Time;durP1;ratioP1;P1;durP2;ratioP2;P2;SDS_P1;SDS_P2;PMS_P1;PMS_P2;Temp;Humidity;BMP_temperature;BMP_pressure;BME280_temperature;BME280_humidity;BME280_pressure;Samples;Min_cycle;Max_cycle;Signal;HPM_P1;HPM_P2
2023/03/12 00:00:38;;;;;;;2.97;1.55;;;;;;;1.42;92.78;96992.09;7376864;19;20598;-67
2023/03/12 00:03:03;;;;;;;3.95;2.80;;;;;;;1.41;92.87;96993.03;7378969;19;20010;-66
2023/03/12 00:05:27;;;;;;;4.78;3.00;;;;;;;1.45;92.97;96985.75;7383647;19;20018;-69
2023/03/12 00:07:52;;;;;;;5.18;2.92;;;;;;;1.37;92.91;96983.72;7385643;19;20121;-68
2023/03/12 00:10:18;;;;;;;3.50;3.00;;;;;;;1.40;93.06;96978.22;7382180;19;20094;-70
2023/03/12 00:12:42;;;;;;;4.10;2.72;;;;;;;1.56;93.06;96967.41;7379020;19;20333;-75
2023/03/12 00:15:08;;;;;;;5.75;3.83;;;;;;;1.47;93.17;96978.59;7376639;19;20417;-77
2023/03/12 00:17:32;;;;;;;7.57;3.55;;;;;;;1.58;93.34;96944.44;7380863;19;20018;-77
2023/03/12 00:19:57;;;;;;;6.13;4.57;;;;;;;1.52;93.24;96971.19;7381342;19;20007;-73
2023/03/12 00:22:22;;;;;;;6.40;4.40;;;;;;;1.50;93.30;96932.88;7377986;19;20383;-78
2023/03/12 00:24:49;;;;;;;4.10;3.15;;;;;;;1.61;93.48;96948.63;7381147;19;20014;-78
2023/03/12 00:27:14;;;;;;;7.50;4.65;;;;;;;1.66;93.48;96938.63;7365149;19;20038;-73
2023/03/12 00:29:38;;;;;;;6.05;4.63;;;;;;;1.74;93.27;96939.69;7350293;19;20018;-72
2023/03/12 00:32:03;;;;;;;5.65;3.90;;;;;;;1.75;93.55;96937.88;7254878;19;20786;-80
2023/03/12 00:34:28;;;;;;;3.60;2.35;;;;;;;1.79;93.52;96918.31;7353982;19;20021;-78
2023/03/12 00:36:53;;;;;;;5.80;4.18;;;;;;;1.79;93.33;96921.78;7348248;19;20014;-78
2023/03/12 00:39:18;;;;;;;7.43;5.03;;;;;;;1.68;93.52;96913.06;7349298;19;20025;-73
2023/03/12 00:41:42;;;;;;;5.78;4.03;;;;;;;1.85;93.68;96894.16;7350576;19;20327;-74
2023/03/12 00:44:07;;;;;;;8.63;4.80;;;;;;;1.75;93.72;96899.34;7346882;19;20014;-71
2023/03/12 00:46:32;;;;;;;4.25;3.10;;;;;;;1.80;93.78;96881.44;7349800;19;20007;-73
2023/03/12 00:48:56;;;;;;;7.00;4.45;;;;;;;1.89;93.81;96887.72;7346891;19;20021;-74
2023/03/12 00:51:21;;;;;;;5.93;3.92;;;;;;;1.83;93.88;96880.31;7348126;19;20018;-77
2023/03/12 00:53:46;;;;;;;8.38;5.65;;;;;;;1.94;93.96;96876.81;7349349;19;20022;-78
2023/03/12 00:56:10;;;;;;;7.47;5.20;;;;;;;2.04;93.71;96872.50;7348595;19;20002;-75
2023/03/12 00:58:35;;;;;;;6.68;4.72;;;;;;;2.01;93.77;96865.72;7347844;19;20010;-72
2023/03/12 01:01:00;;;;;;;7.40;5.60;;;;;;;1.99;93.77;96854.50;7349043;19;20011;-72
2023/03/12 01:03:25;;;;;;;7.03;4.78;;;;;;;2.08;93.90;96853.75;7348624;19;20010;-72
2023/03/12 01:05:53;;;;;;;7.50;5.25;;;;;;;2.13;94.04;96851.59;7350244;19;20094;-72
2023/03/12 01:08:18;;;;;;;7.50;4.80;;;;;;;2.15;93.89;96846.16;7353414;19;20010;-68
2023/03/12 01:10:43;;;;;;;8.93;6.07;;;;;;;2.15;93.98;96840.91;7350396;19;20056;-69
2023/03/12 01:13:08;;;;;;;5.72;4.10;;;;;;;2.29;93.91;96840.63;7351054;19;20006;-68
2023/03/12 01:15:32;;;;;;;9.73;5.32;;;;;;;2.42;93.98;96837.81;7347275;19;20029;-68
2023/03/12 01:17:57;;;;;;;12.63;6.18;;;;;;;2.42;93.92;96824.66;7353905;19;20453;-67
2023/03/12 01:20:22;;;;;;;11.82;5.20;;;;;;;2.42;93.73;96828.13;7348595;19;20022;-66
2023/03/12 01:22:46;;;;;;;9.90;7.03;;;;;;;2.46;93.87;96816.41;7347459;19;20064;-66
2023/03/12 01:25:11;;;;;;;9.57;4.88;;;;;;;2.39;93.92;96820.50;7346002;19;20457;-67
2023/03/12 01:27:36;;;;;;;6.18;3.70;;;;;;;2.50;94.08;96816.97;7349758;19;20014;-66
2023/03/12 01:30:01;;;;;;;7.60;4.53;;;;;;;2.48;94.26;96814.47;7347918;19;20014;-66
2023/03/12 01:32:26;;;;;;;13.98;8.50;;;;;;;2.54;94.16;96807.88;7349834;19;20023;-66
2023/03/12 01:34:51;;;;;;;15.95;8.98;;;;;;;2.58;94.03;96805.81;7345786;19;20015;-66
2023/03/12 01:37:16;;;;;;;13.93;8.13;;;;;;;2.62;94.17;96794.88;7346557;19;20026;-66
2023/03/12 01:39:40;;;;;;;19.00;8.55;;;;;;;2.60;94.22;96809.16;7342514;19;20501;-63
2023/03/12 01:42:05;;;;;;;19.08;11.10;;;;;;;2.63;94.29;96790.47;7346958;19;20377;-70
2023/03/12 01:44:47;;;;;;;15.35;9.00;;;;;;;2.58;94.46;96785.63;7345202;19;20373;-65
2023/03/12 01:47:11;;;;;;;23.17;10.45;;;;;;;2.59;94.42;96778.56;7346333;19;20162;-64
2023/03/12 01:49:36;;;;;;;9.93;5.95;;;;;;;2.71;94.71;96783.59;7345056;19;20031;-67
2023/03/12 01:52:06;;;;;;;15.85;9.10;;;;;;;2.86;94.76;96778.81;7345947;19;20019;-65
2023/03/12 01:54:41;;;;;;;16.33;9.50;;;;;;;2.85;94.86;96775.34;7344952;19;20010;-70
2023/03/12 01:57:12;;;;;;;13.40;7.97;;;;;;;2.82;95.16;96764.28;7346852;19;20415;-78
2023/03/12 01:59:51;;;;;;;21.80;10.95;;;;;;;2.84;95.02;96770.22;7346048;19;20022;-71
2023/03/12 02:02:18;;;;;;;23.88;11.40;;;;;;;2.87;95.06;96755.00;7344803;19;20018;-75
2023/03/12 02:04:44;;;;;;;16.05;8.63;;;;;;;3.03;95.25;96757.16;7345390;19;20014;-70
2023/03/12 02:07:12;;;;;;;17.38;9.43;;;;;;;3.13;95.20;96738.75;7344459;19;20090;-69
2023/03/12 02:09:47;;;;;;;23.40;12.05;;;;;;;3.07;95.16;96741.91;7345005;19;20027;-64
2023/03/12 02:12:12;;;;;;;21.40;11.43;;;;;;;3.03;95.32;96737.91;7345062;19;20461;-67
2023/03/12 02:14:38;;;;;;;25.35;11.93;;;;;;;3.00;95.38;96738.16;7343727;19;20011;-68
2023/03/12 02:17:03;;;;;;;16.92;9.60;;;;;;;3.27;95.40;96733.91;7343139;19;20022;-66
2023/03/12 02:20:10;;;;;;;11.30;6.43;;;;;;;3.44;95.25;96724.53;7344497;19;20014;-64
2023/03/12 02:22:37;;;;;;;24.30;13.07;;;;;;;3.21;95.25;96726.56;7341853;19;20029;-65
2023/03/12 02:25:31;;;;;;;22.05;11.77;;;;;;;3.37;95.53;96712.91;7340925;19;20085;-65
2023/03/12 02:27:58;;;;;;;18.67;9.57;;;;;;;3.32;95.41;96714.25;7339655;19;20014;-64
2023/03/12 02:30:25;;;;;;;22.92;13.30;;;;;;;3.24;95.58;96717.56;7341746;19;20022;-67
2023/03/12 02:32:50;;;;;;;20.85;10.85;;;;;;;3.24;95.56;96712.31;7340509;19;20011;-65
2023/03/12 02:35:15;;;;;;;20.75;9.38;;;;;;;3.25;95.42;96699.03;7340661;19;20023;-65
2023/03/12 02:37:49;;;;;;;21.75;11.35;;;;;;;3.38;95.76;96692.66;7342187;19;20018;-65
2023/03/12 02:40:42;;;;;;;23.52;11.45;;;;;;;3.55;95.83;96692.81;7340006;19;20026;-67
2023/03/12 02:43:09;;;;;;;20.95;11.77;;;;;;;3.47;95.79;96682.13;7341463;19;20347;-74
2023/03/12 02:45:35;;;;;;;14.77;8.57;;;;;;;3.44;95.67;96686.84;7340573;19;20014;-62
2023/03/12 02:48:01;;;;;;;22.10;11.40;;;;;;;3.46;95.73;96669.09;7342401;19;20068;-64
2023/03/12 02:50:26;;;;;;;20.92;9.93;;;;;;;3.47;95.71;96681.31;7340158;19;20014;-65
2023/03/12 02:52:51;;;;;;;15.98;9.82;;;;;;;3.35;95.72;96666.59;7339175;19;20017;-67
2023/03/12 02:55:15;;;;;;;19.48;10.70;;;;;;;3.37;95.87;96664.66;7340091;19;20502;-66
2023/03/12 02:57:42;;;;;;;16.08;9.23;;;;;;;3.45;95.95;96643.72;7343570;19;20354;-67
2023/03/12 03:00:11;;;;;;;17.48;8.73;;;;;;;3.49;95.98;96639.88;7341618;19;20027;-65
2023/03/12 03:02:42;;;;;;;15.15;6.72;;;;;;;3.50;96.18;96657.34;7341205;19;20030;-67
2023/03/12 03:05:08;;;;;;;16.70;9.35;;;;;;;3.55;96.02;96640.13;7343118;19;20018;-65
2023/03/12 03:07:33;;;;;;;16.67;8.57;;;;;;;3.50;95.91;96650.22;7340753;19;20014;-66
2023/03/12 03:10:02;;;;;;;15.60;9.48;;;;;;;3.49;96.08;96635.44;7342165;19;20030;-65
2023/03/12 03:12:37;;;;;;;18.40;9.07;;;;;;;3.49;96.07;96642.50;7341119;19;20462;-66
2023/03/12 03:15:05;;;;;;;13.85;8.40;;;;;;;3.61;96.22;96633.47;7343893;19;20007;-68
2023/03/12 03:17:29;;;;;;;18.08;9.35;;;;;;;3.52;96.12;96636.94;7349357;19;20013;-67
2023/03/12 03:19:54;;;;;;;16.92;9.50;;;;;;;3.57;96.25;96619.75;7344020;19;20022;-67
2023/03/12 03:22:20;;;;;;;15.93;7.50;;;;;;;3.65;96.26;96624.31;7345432;19;20106;-67
2023/03/12 03:24:46;;;;;;;14.70;7.32;;;;;;;3.83;95.85;96629.72;7343655;19;20346;-68
2023/03/12 03:27:11;;;;;;;20.25;9.85;;;;;;;3.72;95.97;96612.25;7344932;19;20318;-66
2023/03/12 03:29:36;;;;;;;15.05;8.00;;;;;;;3.65;95.96;96619.88;7343495;19;20007;-67
2023/03/12 03:32:00;;;;;;;15.73;9.38;;;;;;;3.69;95.98;96617.78;7343723;19;20023;-66
2023/03/12 03:34:25;;;;;;;17.45;9.82;;;;;;;3.68;96.15;96600.31;7341945;19;20086;-68
2023/03/12 03:36:50;;;;;;;18.83;7.43;;;;;;;3.80;96.21;96601.00;7342829;19;20941;-67
2023/03/12 03:39:16;;;;;;;15.73;8.00;;;;;;;3.78;96.23;96587.97;7340203;19;20027;-67
2023/03/12 03:41:40;;;;;;;15.57;9.45;;;;;;;3.76;96.12;96586.44;7342078;19;20015;-67
2023/03/12 03:44:06;;;;;;;19.77;11.02;;;;;;;3.72;96.18;96585.06;7341514;19;20023;-65
2023/03/12 03:46:36;;;;;;;13.40;7.65;;;;;;;3.76;96.08;96584.63;7343546;19;20485;-66
2023/03/12 03:49:04;;;;;;;18.13;10.05;;;;;;;3.72;96.21;96577.16;7342712;19;20014;-67
2023/03/12 03:51:31;;;;;;;10.25;6.85;;;;;;;3.87;96.18;96578.38;7343619;19;20011;-67
2023/03/12 03:54:00;;;;;;;14.45;8.10;;;;;;;3.81;96.09;96566.59;7342303;19;20026;-67
2023/03/12 03:56:27;;;;;;;22.48;11.00;;;;;;;3.86;96.09;96571.44;7343456;19;20025;-71
2023/03/12 03:58:51;;;;;;;10.38;5.97;;;;;;;3.81;96.20;96569.25;7345317;19;20014;-68
2023/03/12 04:01:19;;;;;;;18.52;10.38;;;;;;;3.83;95.98;96555.94;7343737;19;20077;-67
2023/03/12 04:03:45;;;;;;;19.05;9.30;;;;;;;3.81;96.31;96553.44;7351418;19;20019;-67
2023/03/12 04:06:10;;;;;;;11.32;6.85;;;;;;;3.83;96.28;96543.59;7348803;19;20014;-68
2023/03/12 04:08:36;;;;;;;17.42;8.82;;;;;;;3.80;96.32;96541.22;7349076;19;20025;-68
2023/03/12 04:11:13;;;;;;;13.88;8.30;;;;;;;3.80;96.47;96529.84;7348354;19;20469;-66
2023/03/12 04:13:38;;;;;;;11.98;6.90;;;;;;;3.99;96.33;96530.59;7346454;19;20014;-66
2023/03/12 04:16:04;;;;;;;14.40;7.72;;;;;;;4.07;96.25;96531.69;7342634;19;20026;-69
2023/03/12 04:18:29;;;;;;;16.08;8.43;;;;;;;3.96;96.28;96520.34;7347116;19;20041;-68
2023/03/12 04:20:54;;;;;;;7.53;6.20;;;;;;;4.06;96.32;96516.88;7348707;19;20015;-68
2023/03/12 04:23:19;;;;;;;16.90;9.32;;;;;;;3.95;96.41;96508.13;7346462;19;20450;-68
2023/03/12 04:25:43;;;;;;;13.07;7.97;;;;;;;3.98;96.29;96509.66;7347578;19;20078;-69
2023/03/12 04:28:08;;;;;;;15.52;8.75;;;;;;;3.97;96.39;96505.38;7346511;19;20014;-67
2023/03/12 04:30:37;;;;;;;14.73;8.75;;;;;;;3.95;96.47;96497.59;7347772;19;20423;-65
2023/03/12 04:33:03;;;;;;;9.23;5.13;;;;;;;4.04;96.57;96506.47;7347368;19;20466;-67
2023/03/12 04:35:28;;;;;;;11.00;6.57;;;;;;;4.06;96.49;96504.53;7350160;19;20007;-70
2023/03/12 04:37:53;;;;;;;20.05;9.13;;;;;;;3.99;96.57;96493.72;7351708;19;20014;-67
2023/03/12 04:40:18;;;;;;;17.48;7.97;;;;;;;3.91;96.65;96498.06;7352087;19;20006;-67
2023/03/12 04:42:43;;;;;;;17.13;8.88;;;;;;;4.01;96.73;96493.56;7348186;19;20347;-68
2023/03/12 04:45:09;;;;;;;7.05;4.72;;;;;;;4.21;96.79;96486.38;7351617;19;20330;-68
2023/03/12 04:47:37;;;;;;;12.82;6.68;;;;;;;4.18;96.78;96476.94;7349292;19;20025;-68
2023/03/12 04:50:02;;;;;;;16.42;9.10;;;;;;;4.14;96.65;96485.31;7349809;19;20523;-66
2023/03/12 04:52:29;;;;;;;13.07;8.57;;;;;;;4.17;96.80;96477.97;7347545;19;20019;-66
2023/03/12 04:54:55;;;;;;;16.88;8.48;;;;;;;4.10;96.74;96484.78;7348650;19;20184;-65
2023/03/12 04:57:19;;;;;;;18.08;8.85;;;;;;;4.24;96.69;96488.72;7347585;19;20019;-67
2023/03/12 04:59:44;;;;;;;21.67;10.05;;;;;;;4.17;96.88;96474.50;7350351;19;20029;-67
2023/03/12 05:02:09;;;;;;;20.77;10.05;;;;;;;4.18;96.74;96471.69;7350387;19;20018;-66
2023/03/12 05:04:34;;;;;;;19.60;10.30;;;;;;;4.27;96.82;96475.25;7350332;19;20042;-67
2023/03/12 05:06:59;;;;;;;24.08;10.27;;;;;;;4.19;96.97;96451.41;7349670;19;20015;-65
2023/03/12 05:09:23;;;;;;;24.02;11.98;;;;;;;4.21;96.90;96452.09;7348878;19;20018;-67
2023/03/12 05:11:48;;;;;;;21.38;10.27;;;;;;;4.26;96.91;96455.16;7348773;19;20018;-67
2023/03/12 05:14:16;;;;;;;15.73;8.68;;;;;;;4.44;96.78;96439.31;7349137;19;20380;-66
2023/03/12 05:16:43;;;;;;;13.07;6.50;;;;;;;4.42;96.84;96433.38;7347721;19;20011;-66
2023/03/12 05:19:07;;;;;;;11.05;6.68;;;;;;;4.57;96.61;96430.06;7358767;19;20017;-67
2023/03/12 05:21:33;;;;;;;15.77;9.02;;;;;;;4.51;96.53;96443.03;7366398;19;20074;-66
2023/03/12 05:23:58;;;;;;;12.98;7.50;;;;;;;4.48;96.54;96441.53;7362499;19;20055;-67
2023/03/12 05:26:30;;;;;;;9.30;5.78;;;;;;;4.50;96.69;96429.03;7358412;19;20046;-67
2023/03/12 05:29:03;;;;;;;10.63;6.43;;;;;;;4.59;96.56;96433.38;7348599;19;20057;-66
2023/03/12 05:31:31;;;;;;;9.93;6.43;;;;;;;4.49;96.67;96431.81;7353209;19;20014;-66
2023/03/12 05:33:58;;;;;;;15.23;8.20;;;;;;;4.61;96.55;96428.78;7349796;19;20320;-67
2023/03/12 05:36:22;;;;;;;8.60;5.22;;;;;;;4.53;96.61;96427.88;7342624;19;20014;-68
2023/03/12 05:38:47;;;;;;;14.40;8.68;;;;;;;4.59;96.55;96420.19;7344991;19;20078;-64
2023/03/12 05:41:22;;;;;;;15.85;9.15;;;;;;;4.66;96.69;96429.16;7343953;19;20074;-67
2023/03/12 05:43:48;;;;;;;13.32;7.40;;;;;;;4.76;96.67;96415.88;7346258;19;20022;-67
2023/03/12 05:46:14;;;;;;;8.40;6.00;;;;;;;4.88;96.55;96400.63;7346327;19;20010;-66
2023/03/12 05:48:39;;;;;;;17.15;9.38;;;;;;;4.71;96.52;96419.00;7347693;19;20006;-68
2023/03/12 05:51:04;;;;;;;16.08;8.85;;;;;;;4.66;96.59;96405.41;7346908;19;20041;-67
2023/03/12 05:53:31;;;;;;;18.90;8.35;;;;;;;4.77;96.63;96403.50;7348987;19;20453;-69
2023/03/12 05:56:02;;;;;;;18.35;8.05;;;;;;;4.79;96.70;96393.63;7347662;19;20493;-68
2023/03/12 05:58:26;;;;;;;24.50;10.35;;;;;;;4.80;96.71;96392.66;7350638;19;20015;-68
2023/03/12 06:00:51;;;;;;;14.07;7.97;;;;;;;4.81;96.67;96384.59;7350716;19;20018;-66
2023/03/12 06:03:16;;;;;;;17.67;10.40;;;;;;;4.78;96.83;96390.16;7350999;19;20007;-69
2023/03/12 06:05:43;;;;;;;26.75;15.25;;;;;;;4.64;96.90;96396.81;7348657;19;20106;-66
2023/03/12 06:08:08;;;;;;;19.98;10.45;;;;;;;4.57;97.01;96390.50;7351178;19;20014;-68
2023/03/12 06:10:33;;;;;;;23.83;13.82;;;;;;;4.59;97.12;96390.34;7348621;19;20035;-67
2023/03/12 06:12:58;;;;;;;11.80;6.32;;;;;;;4.67;97.08;96377.22;7349361;19;20042;-68
2023/03/12 06:15:22;;;;;;;21.92;12.85;;;;;;;4.77;97.10;96382.41;7342199;19;20003;-68
2023/03/12 06:17:47;;;;;;;27.08;15.38;;;;;;;4.61;97.35;96373.41;7346650;19;20363;-66
2023/03/12 06:20:12;;;;;;;22.88;12.05;;;;;;;4.64;97.47;96380.97;7344028;19;20013;-68
2023/03/12 06:22:37;;;;;;;24.95;12.73;;;;;;;4.73;97.39;96377.44;7347152;19;20441;-66
2023/03/12 06:25:03;;;;;;;20.45;10.85;;;;;;;4.79;97.42;96385.72;7345828;19;20461;-68
2023/03/12 06:27:27;;;;;;;24.77;12.20;;;;;;;4.82;97.39;96362.50;7344714;19;20022;-67
2023/03/12 06:29:52;;;;;;;14.77;7.93;;;;;;;4.95;97.54;96385.84;7345001;19;20018;-67
2023/03/12 06:32:17;;;;;;;21.98;11.25;;;;;;;5.02;97.30;96363.94;7344515;19;20019;-67
2023/03/12 06:34:41;;;;;;;19.75;9.35;;;;;;;5.00;97.24;96373.84;7341896;19;20021;-70
2023/03/12 06:37:06;;;;;;;22.25;11.05;;;;;;;5.01;97.21;96372.84;7342105;19;20484;-69
2023/03/12 06:39:31;;;;;;;19.38;10.48;;;;;;;4.92;97.29;96363.22;7343617;19;20019;-67
2023/03/12 06:41:56;;;;;;;19.45;10.55;;;;;;;4.93;97.38;96371.97;7345932;19;20077;-67
2023/03/12 06:44:20;;;;;;;20.83;12.35;;;;;;;4.90;97.33;96370.47;7341926;19;20070;-67
2023/03/12 06:46:45;;;;;;;11.52;7.20;;;;;;;5.15;97.31;96352.16;7344062;19;20014;-67
2023/03/12 06:49:10;;;;;;;25.13;14.10;;;;;;;4.99;97.39;96358.16;7341886;19;20331;-66
2023/03/12 06:51:35;;;;;;;20.35;10.75;;;;;;;5.19;97.25;96342.94;7342862;19;20022;-67
2023/03/12 06:54:01;;;;;;;27.27;13.30;;;;;;;5.10;97.18;96345.50;7341265;19;20037;-69
2023/03/12 06:56:25;;;;;;;27.38;14.60;;;;;;;5.19;97.16;96348.22;7341983;19;20018;-69
2023/03/12 06:58:50;;;;;;;14.88;7.78;;;;;;;5.28;97.30;96337.53;7342858;19;20014;-68
2023/03/12 07:01:15;;;;;;;25.77;13.10;;;;;;;5.06;97.28;96346.81;7344172;19;20110;-65
2023/03/12 07:03:39;;;;;;;23.02;12.65;;;;;;;5.18;97.28;96336.00;7345314;19;20393;-65
2023/03/12 07:06:04;;;;;;;26.08;14.38;;;;;;;5.22;97.24;96347.88;7342190;19;20046;-68
2023/03/12 07:08:29;;;;;;;24.88;14.00;;;;;;;5.13;97.28;96333.81;7345692;19;20017;-67
2023/03/12 07:10:54;;;;;;;24.08;13.35;;;;;;;5.09;97.41;96335.09;7342535;19;20065;-66
2023/03/12 07:13:19;;;;;;;27.88;14.30;;;;;;;5.25;97.42;96324.63;7345145;19;20031;-67
2023/03/12 07:15:45;;;;;;;20.60;11.27;;;;;;;5.21;97.50;96315.38;7338671;19;20383;-66
2023/03/12 07:18:10;;;;;;;25.10;13.82;;;;;;;5.12;97.42;96313.69;7343511;19;20027;-68
2023/03/12 07:20:37;;;;;;;27.90;13.57;;;;;;;5.25;97.63;96308.78;7341708;19;20007;-68
2023/03/12 07:23:02;;;;;;;29.30;15.10;;;;;;;5.18;97.52;96304.31;7343074;19;20011;-67
2023/03/12 07:25:27;;;;;;;27.60;14.05;;;;;;;5.18;97.63;96306.94;7343272;19;20061;-69
2023/03/12 07:27:51;;;;;;;26.10;13.60;;;;;;;5.25;97.66;96300.88;7343547;19;20070;-69
2023/03/12 07:30:16;;;;;;;24.35;11.70;;;;;;;5.38;97.89;96303.06;7346025;19;20070;-67
2023/03/12 07:32:41;;;;;;;27.73;12.43;;;;;;;5.29;97.67;96304.88;7353451;19;20027;-70
2023/03/12 07:35:05;;;;;;;32.45;13.10;;;;;;;5.32;97.69;96303.69;7345895;19;20018;-68
2023/03/12 07:37:30;;;;;;;24.15;13.43;;;;;;;5.28;97.70;96292.63;7347407;19;20014;-67
2023/03/12 07:39:55;;;;;;;24.98;12.40;;;;;;;5.26;97.86;96294.59;7350569;19;20014;-68
2023/03/12 07:42:19;;;;;;;26.52;13.52;;;;;;;5.23;97.93;96289.63;7351114;19;20003;-68
2023/03/12 07:44:45;;;;;;;21.35;11.95;;;;;;;5.20;97.92;96284.66;7349326;19;20466;-67
2023/03/12 07:47:10;;;;;;;19.20;10.30;;;;;;;5.29;98.02;96283.72;7351420;19;20021;-69
2023/03/12 07:49:34;;;;;;;18.58;10.73;;;;;;;5.44;97.94;96287.41;7349873;19;20022;-67
2023/03/12 07:51:59;;;;;;;22.35;12.93;;;;;;;5.45;97.72;96283.78;7351559;19;20011;-69
2023/03/12 07:54:29;;;;;;;28.73;13.35;;;;;;;5.47;97.94;96273.88;7350658;19;20074;-68
2023/03/12 07:56:53;;;;;;;21.48;11.70;;;;;;;5.53;97.58;96275.03;7349239;19;20308;-66
2023/03/12 07:59:18;;;;;;;23.05;13.65;;;;;;;5.55;97.74;96266.97;7353173;19;20101;-66
2023/03/12 08:01:43;;;;;;;10.18;6.35;;;;;;;5.67;97.92;96258.56;7352137;19;20018;-68
2023/03/12 08:04:08;;;;;;;21.35;10.40;;;;;;;5.56;97.63;96263.34;7353383;19;20054;-67
2023/03/12 08:06:33;;;;;;;17.88;10.80;;;;;;;5.56;97.90;96260.69;7354682;19;20014;-70
2023/03/12 08:08:57;;;;;;;10.70;6.57;;;;;;;5.76;98.08;96262.06;7353506;19;20007;-67
2023/03/12 08:11:22;;;;;;;12.55;7.72;;;;;;;5.70;97.73;96254.78;7355697;19;20031;-68
2023/03/12 08:13:46;;;;;;;19.58;11.13;;;;;;;5.61;97.80;96256.59;7355727;19;20021;-67
2023/03/12 08:16:13;;;;;;;15.40;10.00;;;;;;;5.58;97.85;96262.19;7351062;19;20014;-68
2023/03/12 08:18:38;;;;;;;14.38;8.77;;;;;;;5.60;97.80;96254.94;7350799;19;20022;-68
2023/03/12 08:21:03;;;;;;;13.57;8.27;;;;;;;5.55;97.88;96253.75;7349649;19;20022;-68
2023/03/12 08:23:28;;;;;;;14.13;7.93;;;;;;;5.52;97.72;96247.00;7348468;19;20019;-67
2023/03/12 08:25:53;;;;;;;8.77;5.32;;;;;;;5.64;97.96;96240.41;7350515;19;20126;-68
2023/03/12 08:28:19;;;;;;;15.98;8.52;;;;;;;5.66;97.84;96237.59;7349971;19;20023;-68
2023/03/12 08:30:49;;;;;;;14.60;8.07;;;;;;;5.56;97.67;96232.47;7353349;19;20014;-67
2023/03/12 08:33:15;;;;;;;11.43;7.35;;;;;;;5.58;97.76;96229.66;7352725;19;20082;-68
2023/03/12 08:35:40;;;;;;;10.45;7.05;;;;;;;5.54;97.65;96215.94;7349372;19;20006;-67
2023/03/12 08:38:05;;;;;;;14.55;8.45;;;;;;;5.57;97.71;96209.50;7347437;19;20010;-67
2023/03/12 08:40:30;;;;;;;16.85;8.68;;;;;;;5.55;97.79;96208.84;7348106;19;20030;-73
2023/03/12 08:42:54;;;;;;;12.38;7.32;;;;;;;5.56;98.00;96199.91;7349549;19;20006;-69
2023/03/12 08:45:19;;;;;;;13.05;8.23;;;;;;;5.59;98.08;96200.44;7357627;19;20014;-69
2023/03/12 08:47:44;;;;;;;13.15;8.20;;;;;;;5.64;97.93;96192.03;7352304;19;20090;-68
2023/03/12 08:50:11;;;;;;;11.75;7.07;;;;;;;5.72;98.04;96200.78;7353909;19;20026;-69
2023/03/12 08:52:36;;;;;;;17.13;8.27;;;;;;;5.65;98.20;96185.72;7348048;19;20022;-68
2023/03/12 08:55:00;;;;;;;10.88;6.30;;;;;;;5.72;98.02;96184.09;7349557;19;20034;-66
2023/03/12 08:57:25;;;;;;;14.25;8.05;;;;;;;5.66;98.08;96187.38;7346155;19;20332;-69
2023/03/12 08:59:50;;;;;;;11.85;6.07;;;;;;;5.72;98.18;96177.00;7351772;19;20014;-67
2023/03/12 09:02:15;;;;;;;11.45;8.07;;;;;;;5.69;98.10;96173.84;7351007;19;20526;-67
2023/03/12 09:04:41;;;;;;;11.77;7.05;;;;;;;5.79;98.29;96163.94;7352661;19;20019;-67
2023/03/12 09:07:06;;;;;;;13.02;7.63;;;;;;;5.78;98.37;96157.84;7348821;19;20014;-68
2023/03/12 09:09:31;;;;;;;13.45;6.72;;;;;;;5.81;98.22;96152.22;7347550;19;20010;-69
2023/03/12 09:11:56;;;;;;;11.65;5.55;;;;;;;5.76;98.28;96149.22;7347111;19;20026;-68
2023/03/12 09:14:20;;;;;;;13.23;7.22;;;;;;;5.90;98.17;96157.53;7349028;19;20018;-67
2023/03/12 09:16:45;;;;;;;14.52;7.60;;;;;;;5.87;98.07;96150.72;7343027;19;20468;-68
2023/03/12 09:19:10;;;;;;;11.45;6.78;;;;;;;5.86;98.15;96158.84;7349257;19;20019;-69
2023/03/12 09:21:34;;;;;;;14.15;8.23;;;;;;;5.87;98.07;96142.78;7346217;19;20007;-67
2023/03/12 09:23:59;;;;;;;14.00;6.40;;;;;;;5.93;98.22;96136.06;7347917;19;20026;-66
2023/03/12 09:26:24;;;;;;;5.88;3.72;;;;;;;6.11;98.05;96134.03;7349550;19;20027;-66
2023/03/12 09:28:49;;;;;;;7.32;4.50;;;;;;;6.07;98.04;96132.75;7346149;19;20081;-68
2023/03/12 09:31:14;;;;;;;12.70;6.55;;;;;;;5.97;98.08;96130.28;7347517;19;20015;-68
2023/03/12 09:33:39;;;;;;;12.15;7.07;;;;;;;5.97;97.97;96134.75;7348327;19;20015;-68
2023/03/12 09:36:04;;;;;;;10.45;5.80;;;;;;;5.92;98.05;96126.47;7345786;19;20039;-69
2023/03/12 09:38:31;;;;;;;8.73;5.53;;;;;;;5.91;97.92;96117.72;7347053;19;20010;-67
2023/03/12 09:40:55;;;;;;;10.35;6.60;;;;;;;5.91;98.07;96109.78;7346485;19;20022;-71
2023/03/12 09:43:38;;;;;;;10.65;6.40;;;;;;;5.93;98.10;96115.72;7346517;19;20028;-72
2023/03/12 09:46:12;;;;;;;11.13;5.60;;;;;;;5.93;98.03;96094.59;7344675;19;20018;-73
2023/03/12 09:48:37;;;;;;;9.60;6.30;;;;;;;5.83;98.10;96093.91;7346066;19;20019;-72
2023/03/12 09:51:16;;;;;;;10.20;5.03;;;;;;;6.01;98.08;96089.28;7343821;19;20035;-69
2023/03/12 09:53:51;;;;;;;8.85;5.35;;;;;;;5.95;98.07;96087.31;7345805;19;20517;-70
2023/03/12 09:56:17;;;;;;;;;;;;;;;6.21;97.96;96070.41;7345138;19;20019;-72
2023/03/12 09:58:46;;;;;;;10.05;5.18;;;;;;;6.01;97.64;96056.72;7349870;19;19930;-73
2023/03/12 10:01:31;;;;;;;6.68;3.90;;;;;;;6.14;97.74;96063.16;7347690;19;20042;-72
2023/03/12 10:04:05;;;;;;;;;;;;;;;6.18;97.84;96059.19;7354206;19;20638;-73
2023/03/12 10:06:40;;;;;;;9.13;5.30;;;;;;;6.05;97.65;96063.34;7353178;19;20252;-73
2023/03/12 10:09:37;;;;;;;7.40;4.90;;;;;;;6.11;97.66;96060.00;7348443;19;20426;-73
2023/03/12 10:12:29;;;;;;;8.27;4.63;;;;;;;5.92;97.74;96042.72;7341854;19;20077;-72
2023/03/12 10:15:00;;;;;;;8.95;4.50;;;;;;;5.76;97.98;96032.13;7343990;19;20017;-72
2023/03/12 10:17:40;;;;;;;9.85;5.50;;;;;;;5.78;97.99;96030.97;7343918;19;20021;-73
2023/03/12 10:20:14;;;;;;;7.80;4.97;;;;;;;5.79;98.26;96034.44;7344166;19;20010;-74
2023/03/12 10:22:59;;;;;;;7.88;5.03;;;;;;;5.89;98.31;96037.75;7346628;19;20022;-72
2023/03/12 10:25:42;;;;;;;6.70;4.40;;;;;;;5.96;98.37;96022.88;7342988;19;20465;-73
2023/03/12 10:28:27;;;;;;;7.40;5.13;;;;;;;6.01;98.32;96025.81;7341904;19;20093;-74
2023/03/12 10:30:56;;;;;;;5.15;3.50;;;;;;;6.21;98.13;96020.16;7346251;19;20019;-72
2023/03/12 10:33:27;;;;;;;9.30;4.72;;;;;;;6.05;98.04;96015.75;7345199;19;20030;-73
2023/03/12 10:35:53;;;;;;;8.70;5.65;;;;;;;5.80;98.04;96007.84;7345969;19;20022;-73
2023/03/12 10:38:28;;;;;;;7.97;5.18;;;;;;;5.93;98.39;96012.63;7345490;19;20015;-73
2023/03/12 10:40:53;;;;;;;9.73;6.13;;;;;;;5.81;98.47;96008.66;7344827;19;20032;-72
2023/03/12 10:43:19;;;;;;;7.45;4.78;;;;;;;5.93;98.69;96001.22;7343460;19;20025;-73
2023/03/12 10:46:01;;;;;;;8.27;5.53;;;;;;;5.90;98.47;95997.09;7346008;19;20010;-73
2023/03/12 10:48:26;;;;;;;8.55;5.88;;;;;;;5.94;98.59;95990.50;7343635;19;20022;-73
2023/03/12 10:51:12;;;;;;;8.75;5.78;;;;;;;5.93;98.78;95983.56;7342400;19;20080;-72
2023/03/12 10:53:43;;;;;;;;;;;;;;;6.02;98.72;95992.28;7346069;19;20400;-73
2023/03/12 10:56:10;;;;;;;13.20;6.65;;;;;;;6.02;98.71;95979.06;7346737;19;19942;-74
2023/03/12 10:58:47;;;;;;;8.77;5.82;;;;;;;6.03;98.83;95980.72;7345156;19;20010;-73
2023/03/12 11:01:22;;;;;;;6.18;2.88;;;;;;;6.12;98.79;95988.44;7343131;19;20031;-75
2023/03/12 11:03:47;;;;;;;8.48;5.97;;;;;;;5.87;98.75;95976.25;7346343;19;20022;-71
2023/03/12 11:06:23;;;;;;;8.05;5.43;;;;;;;6.06;98.97;95988.31;7343563;19;20082;-71
2023/03/12 11:09:08;;;;;;;13.75;6.20;;;;;;;6.06;98.79;95973.28;7341972;19;20458;-73
2023/03/12 11:11:35;;;;;;;10.07;4.93;;;;;;;5.93;98.72;95970.34;7342020;19;20003;-70
2023/03/12 11:14:27;;;;;;;7.82;5.30;;;;;;;5.93;98.58;95966.88;7344823;19;20577;-69
2023/03/12 11:16:53;;;;;;;10.98;7.40;;;;;;;5.84;98.60;95964.22;7341462;19;20018;-71
2023/03/12 11:19:31;;;;;;;14.40;8.38;;;;;;;5.74;98.92;95968.06;7346325;19;20311;-71
2023/03/12 11:21:58;;;;;;;8.10;5.93;;;;;;;5.77;98.74;95963.25;7341955;19;20018;-75
2023/03/12 11:24:23;;;;;;;10.32;7.13;;;;;;;5.72;98.95;95986.72;7341924;19;20022;-69
2023/03/12 11:27:12;;;;;;;12.48;7.15;;;;;;;5.80;99.04;96007.03;7341851;19;20101;-69
2023/03/12 11:29:47;;;;;;;8.55;5.20;;;;;;;5.71;98.87;96037.94;7343178;19;20011;-71
2023/03/12 11:32:18;;;;;;;3.47;1.90;;;;;;;4.83;96.66;96054.56;7343220;19;20023;-69
2023/03/12 11:34:48;;;;;;;2.15;1.40;;;;;;;4.46;96.23;96063.69;7343183;19;20022;-68